sensor_id;sensor_type;location;lat;lon;timestamp;pressure;altitude;pressure_sealevel;temperature;humidity
33697;BME280;20031;43.416;23.232;2022-07-18T00:02:07;100661.84;;;20.56;43.74
33697;BME280;20031;43.416;23.232;2022-07-18T00:04:32;100661.28;;;20.42;44.32
33697;BME280;20031;43.416;23.232;2022-07-18T00:06:58;100657.03;;;20.34;43.88
33697;BME280;20031;43.416;23.232;2022-07-18T00:09:24;100661.91;;;20.31;44.30
33697;BME280;20031;43.416;23.232;2022-07-18T00:11:53;100665.19;;;20.26;44.38
33697;BME280;20031;43.416;23.232;2022-07-18T00:14:20;100665.19;;;20.26;44.72
33697;BME280;20031;43.416;23.232;2022-07-18T00:16:45;100660.50;;;20.22;45.33
33697;BME280;20031;43.416;23.232;2022-07-18T00:19:11;100668.03;;;20.12;46.70
33697;BME280;20031;43.416;23.232;2022-07-18T00:21:37;100670.91;;;19.98;47.16
33697;BME280;20031;43.416;23.232;2022-07-18T00:24:02;100668.84;;;19.80;48.27
33697;BME280;20031;43.416;23.232;2022-07-18T00:26:28;100676.91;;;19.66;50.51
33697;BME280;20031;43.416;23.232;2022-07-18T00:28:54;100683.41;;;19.57;51.90
33697;BME280;20031;43.416;23.232;2022-07-18T00:31:19;100677.72;;;19.60;53.16
33697;BME280;20031;43.416;23.232;2022-07-18T00:33:45;100674.28;;;19.59;53.06
33697;BME280;20031;43.416;23.232;2022-07-18T00:36:11;100681.59;;;19.51;52.48
33697;BME280;20031;43.416;23.232;2022-07-18T00:38:36;100675.47;;;19.44;51.74
33697;BME280;20031;43.416;23.232;2022-07-18T00:41:02;100686.00;;;19.31;51.81
33697;BME280;20031;43.416;23.232;2022-07-18T00:43:28;100677.84;;;19.26;51.71
33697;BME280;20031;43.416;23.232;2022-07-18T00:45:53;100675.41;;;19.25;52.16
33697;BME280;20031;43.416;23.232;2022-07-18T00:48:19;100680.13;;;19.29;53.16
33697;BME280;20031;43.416;23.232;2022-07-18T00:50:46;100686.41;;;19.28;53.01
33697;BME280;20031;43.416;23.232;2022-07-18T00:53:11;100695.97;;;19.29;52.79
33697;BME280;20031;43.416;23.232;2022-07-18T00:55:44;100699.38;;;19.23;52.32
33697;BME280;20031;43.416;23.232;2022-07-18T00:58:11;100691.66;;;19.22;52.15
33697;BME280;20031;43.416;23.232;2022-07-18T01:00:37;100697.34;;;19.19;52.38
33697;BME280;20031;43.416;23.232;2022-07-18T01:03:21;100696.72;;;19.17;52.62
33697;BME280;20031;43.416;23.232;2022-07-18T01:05:47;100697.94;;;19.14;52.48
33697;BME280;20031;43.416;23.232;2022-07-18T01:08:13;100694.06;;;19.10;51.97
33697;BME280;20031;43.416;23.232;2022-07-18T01:10:38;100697.72;;;19.09;51.99
33697;BME280;20031;43.416;23.232;2022-07-18T01:13:04;100689.81;;;19.09;52.80
33697;BME280;20031;43.416;23.232;2022-07-18T01:15:29;100689.75;;;19.03;52.80
33697;BME280;20031;43.416;23.232;2022-07-18T01:17:55;100692.34;;;18.96;52.61
33697;BME280;20031;43.416;23.232;2022-07-18T01:20:21;100698.38;;;18.84;52.68
33697;BME280;20031;43.416;23.232;2022-07-18T01:22:46;100697.91;;;18.74;51.96
33697;BME280;20031;43.416;23.232;2022-07-18T01:25:12;100701.16;;;18.70;51.00
33697;BME280;20031;43.416;23.232;2022-07-18T01:27:38;100698.66;;;18.62;49.98
33697;BME280;20031;43.416;23.232;2022-07-18T01:30:05;100696.13;;;18.47;49.97
33697;BME280;20031;43.416;23.232;2022-07-18T01:32:30;100688.78;;;18.43;50.34
33697;BME280;20031;43.416;23.232;2022-07-18T01:34:56;100693.44;;;18.41;50.32
33697;BME280;20031;43.416;23.232;2022-07-18T01:37:21;100702.31;;;18.34;50.38
33697;BME280;20031;43.416;23.232;2022-07-18T01:39:47;100704.53;;;18.30;49.95
33697;BME280;20031;43.416;23.232;2022-07-18T01:42:14;100702.63;;;18.24;50.41
33697;BME280;20031;43.416;23.232;2022-07-18T01:44:41;100708.50;;;18.20;50.63
33697;BME280;20031;43.416;23.232;2022-07-18T01:47:09;100712.84;;;18.13;51.57
33697;BME280;20031;43.416;23.232;2022-07-18T01:49:35;100708.31;;;18.00;52.40
33697;BME280;20031;43.416;23.232;2022-07-18T01:52:01;100711.94;;;17.99;53.93
33697;BME280;20031;43.416;23.232;2022-07-18T01:54:29;100711.34;;;17.97;54.04
33697;BME280;20031;43.416;23.232;2022-07-18T01:56:56;100709.69;;;17.96;53.67
33697;BME280;20031;43.416;23.232;2022-07-18T01:59:22;100711.06;;;17.92;52.61
33697;BME280;20031;43.416;23.232;2022-07-18T02:01:48;100705.00;;;17.92;52.88
33697;BME280;20031;43.416;23.232;2022-07-18T02:04:13;100716.78;;;17.96;53.69
33697;BME280;20031;43.416;23.232;2022-07-18T02:06:39;100716.84;;;18.02;54.72
33697;BME280;20031;43.416;23.232;2022-07-18T02:09:05;100719.09;;;18.05;54.96
33697;BME280;20031;43.416;23.232;2022-07-18T02:11:32;100719.72;;;18.07;55.66
33697;BME280;20031;43.416;23.232;2022-07-18T02:13:58;100716.06;;;18.08;55.49
33697;BME280;20031;43.416;23.232;2022-07-18T02:16:24;100719.94;;;18.06;55.24
33697;BME280;20031;43.416;23.232;2022-07-18T02:18:49;100717.03;;;18.01;54.78
33697;BME280;20031;43.416;23.232;2022-07-18T02:21:14;100730.13;;;17.94;55.38
33697;BME280;20031;43.416;23.232;2022-07-18T02:23:41;100723.25;;;17.93;55.65
33697;BME280;20031;43.416;23.232;2022-07-18T02:26:08;100729.53;;;17.92;54.58
33697;BME280;20031;43.416;23.232;2022-07-18T02:28:34;100733.09;;;17.85;54.21
33697;BME280;20031;43.416;23.232;2022-07-18T02:30:59;100735.28;;;17.82;54.47
33697;BME280;20031;43.416;23.232;2022-07-18T02:33:25;100741.59;;;17.81;54.24
33697;BME280;20031;43.416;23.232;2022-07-18T02:35:51;100746.47;;;17.84;54.43
33697;BME280;20031;43.416;23.232;2022-07-18T02:38:16;100745.44;;;17.85;54.45
33697;BME280;20031;43.416;23.232;2022-07-18T02:40:42;100756.38;;;17.82;54.46
33697;BME280;20031;43.416;23.232;2022-07-18T02:43:07;100757.59;;;17.79;54.66
33697;BME280;20031;43.416;23.232;2022-07-18T02:45:33;100751.94;;;17.82;53.89
33697;BME280;20031;43.416;23.232;2022-07-18T02:47:58;100766.91;;;17.82;53.79
33697;BME280;20031;43.416;23.232;2022-07-18T02:50:24;100762.28;;;17.84;53.21
33697;BME280;20031;43.416;23.232;2022-07-18T02:52:49;100768.16;;;17.86;52.50
33697;BME280;20031;43.416;23.232;2022-07-18T02:55:15;100776.34;;;17.90;52.18
33697;BME280;20031;43.416;23.232;2022-07-18T02:57:41;100774.31;;;17.92;52.22
33697;BME280;20031;43.416;23.232;2022-07-18T03:00:10;100777.53;;;17.88;53.20
33697;BME280;20031;43.416;23.232;2022-07-18T03:02:36;100780.34;;;17.87;53.98
33697;BME280;20031;43.416;23.232;2022-07-18T03:05:02;100785.91;;;17.77;55.12
33697;BME280;20031;43.416;23.232;2022-07-18T03:07:28;100777.69;;;17.66;54.92
33697;BME280;20031;43.416;23.232;2022-07-18T03:09:54;100784.91;;;17.43;55.30
33697;BME280;20031;43.416;23.232;2022-07-18T03:12:20;100797.91;;;17.30;55.86
33697;BME280;20031;43.416;23.232;2022-07-18T03:14:45;100807.72;;;17.22;56.20
33697;BME280;20031;43.416;23.232;2022-07-18T03:17:11;100800.72;;;17.14;56.38
33697;BME280;20031;43.416;23.232;2022-07-18T03:19:36;100797.97;;;17.08;57.26
33697;BME280;20031;43.416;23.232;2022-07-18T03:22:03;100799.06;;;16.99;57.06
33697;BME280;20031;43.416;23.232;2022-07-18T03:24:29;100802.81;;;16.90;57.45
33697;BME280;20031;43.416;23.232;2022-07-18T03:26:55;100800.78;;;16.78;57.76
33697;BME280;20031;43.416;23.232;2022-07-18T03:29:20;100817.75;;;16.75;58.13
33697;BME280;20031;43.416;23.232;2022-07-18T03:31:46;100815.66;;;16.71;58.58
33697;BME280;20031;43.416;23.232;2022-07-18T03:34:11;100809.97;;;16.82;58.24
33697;BME280;20031;43.416;23.232;2022-07-18T03:36:37;100803.97;;;16.87;58.41
33697;BME280;20031;43.416;23.232;2022-07-18T03:39:03;100808.44;;;17.01;57.81
33697;BME280;20031;43.416;23.232;2022-07-18T03:41:29;100804.88;;;17.09;57.93
33697;BME280;20031;43.416;23.232;2022-07-18T03:43:55;100804.91;;;17.23;57.63
33697;BME280;20031;43.416;23.232;2022-07-18T03:46:20;100806.91;;;17.36;57.21
33697;BME280;20031;43.416;23.232;2022-07-18T03:48:45;100807.06;;;17.48;57.37
33697;BME280;20031;43.416;23.232;2022-07-18T03:51:11;100801.97;;;17.61;57.01
33697;BME280;20031;43.416;23.232;2022-07-18T03:53:36;100796.59;;;17.69;56.96
33697;BME280;20031;43.416;23.232;2022-07-18T03:56:02;100810.00;;;17.74;56.17
33697;BME280;20031;43.416;23.232;2022-07-18T03:58:28;100800.56;;;17.80;56.70
33697;BME280;20031;43.416;23.232;2022-07-18T04:00:53;100803.56;;;17.77;55.96
33697;BME280;20031;43.416;23.232;2022-07-18T04:03:19;100810.28;;;17.79;56.24
33697;BME280;20031;43.416;23.232;2022-07-18T04:05:45;100811.47;;;17.77;56.00
33697;BME280;20031;43.416;23.232;2022-07-18T04:08:11;100815.03;;;17.69;55.77
33697;BME280;20031;43.416;23.232;2022-07-18T04:10:36;100809.69;;;17.63;56.25
33697;BME280;20031;43.416;23.232;2022-07-18T04:13:05;100809.50;;;17.64;55.87
33697;BME280;20031;43.416;23.232;2022-07-18T04:15:31;100816.59;;;17.64;56.40
33697;BME280;20031;43.416;23.232;2022-07-18T04:17:56;100824.75;;;17.69;56.15
33697;BME280;20031;43.416;23.232;2022-07-18T04:20:22;100818.09;;;17.73;56.15
33697;BME280;20031;43.416;23.232;2022-07-18T04:25:17;100830.06;;;17.89;55.72
33697;BME280;20031;43.416;23.232;2022-07-18T04:27:43;100820.13;;;17.91;55.26
33697;BME280;20031;43.416;23.232;2022-07-18T04:30:09;100827.06;;;17.92;55.34
33697;BME280;20031;43.416;23.232;2022-07-18T04:32:36;100832.22;;;18.00;55.44
33697;BME280;20031;43.416;23.232;2022-07-18T04:35:02;100830.09;;;18.10;54.86
33697;BME280;20031;43.416;23.232;2022-07-18T04:37:29;100830.69;;;18.27;55.21
33697;BME280;20031;43.416;23.232;2022-07-18T04:39:56;100829.38;;;18.37;54.46
33697;BME280;20031;43.416;23.232;2022-07-18T04:42:21;100830.88;;;18.46;53.99
33697;BME280;20031;43.416;23.232;2022-07-18T04:44:47;100836.69;;;18.62;53.19
33697;BME280;20031;43.416;23.232;2022-07-18T04:47:12;100837.91;;;18.87;52.58
33697;BME280;20031;43.416;23.232;2022-07-18T04:49:38;100835.81;;;19.03;51.87
33697;BME280;20031;43.416;23.232;2022-07-18T04:52:03;100839.97;;;19.19;51.51
33697;BME280;20031;43.416;23.232;2022-07-18T04:54:29;100832.09;;;19.25;50.73
33697;BME280;20031;43.416;23.232;2022-07-18T04:56:54;100837.84;;;19.35;50.68
33697;BME280;20031;43.416;23.232;2022-07-18T04:59:20;100834.31;;;19.62;50.77
33697;BME280;20031;43.416;23.232;2022-07-18T05:01:45;100839.94;;;19.93;50.90
33697;BME280;20031;43.416;23.232;2022-07-18T05:04:11;100838.56;;;20.09;49.88
33697;BME280;20031;43.416;23.232;2022-07-18T05:06:36;100841.66;;;20.26;49.79
33697;BME280;20031;43.416;23.232;2022-07-18T05:09:02;100840.47;;;20.41;48.86
33697;BME280;20031;43.416;23.232;2022-07-18T05:11:27;100844.94;;;20.47;48.51
33697;BME280;20031;43.416;23.232;2022-07-18T05:13:53;100836.03;;;20.74;48.18
33697;BME280;20031;43.416;23.232;2022-07-18T05:16:18;100838.44;;;20.95;47.13
33697;BME280;20031;43.416;23.232;2022-07-18T05:18:43;100843.13;;;20.93;46.79
33697;BME280;20031;43.416;23.232;2022-07-18T05:21:09;100834.97;;;20.88;46.58
33697;BME280;20031;43.416;23.232;2022-07-18T05:23:34;100844.53;;;21.08;46.39
33697;BME280;20031;43.416;23.232;2022-07-18T05:26:00;100842.44;;;21.29;46.20
33697;BME280;20031;43.416;23.232;2022-07-18T05:28:25;100841.59;;;21.48;45.13
33697;BME280;20031;43.416;23.232;2022-07-18T05:30:51;100838.53;;;21.45;45.26
33697;BME280;20031;43.416;23.232;2022-07-18T05:33:19;100847.91;;;21.53;44.84
33697;BME280;20031;43.416;23.232;2022-07-18T05:35:45;100851.31;;;21.73;45.12
33697;BME280;20031;43.416;23.232;2022-07-18T05:38:10;100855.31;;;21.89;45.35
33697;BME280;20031;43.416;23.232;2022-07-18T05:40:36;100847.44;;;22.06;45.40
33697;BME280;20031;43.416;23.232;2022-07-18T05:43:01;100850.03;;;22.19;44.88
33697;BME280;20031;43.416;23.232;2022-07-18T05:45:28;100848.19;;;22.26;44.42
33697;BME280;20031;43.416;23.232;2022-07-18T05:47:54;100852.72;;;22.50;44.47
33697;BME280;20031;43.416;23.232;2022-07-18T05:50:19;100849.09;;;22.69;43.74
33697;BME280;20031;43.416;23.232;2022-07-18T05:52:45;100844.97;;;22.73;43.73
33697;BME280;20031;43.416;23.232;2022-07-18T05:55:11;100853.88;;;22.85;43.39
33697;BME280;20031;43.416;23.232;2022-07-18T05:57:37;100851.81;;;22.87;43.13
33697;BME280;20031;43.416;23.232;2022-07-18T06:00:05;100844.41;;;22.95;42.52
33697;BME280;20031;43.416;23.232;2022-07-18T06:02:31;100844.72;;;23.05;42.84
33697;BME280;20031;43.416;23.232;2022-07-18T06:04:56;100840.47;;;23.22;42.84
33697;BME280;20031;43.416;23.232;2022-07-18T06:07:22;100842.91;;;23.23;41.36
33697;BME280;20031;43.416;23.232;2022-07-18T06:09:47;100843.94;;;23.40;41.44
33697;BME280;20031;43.416;23.232;2022-07-18T06:12:15;100833.97;;;23.36;40.43
33697;BME280;20031;43.416;23.232;2022-07-18T06:14:40;100845.13;;;23.44;40.72
33697;BME280;20031;43.416;23.232;2022-07-18T06:17:06;100845.28;;;23.67;40.37
33697;BME280;20031;43.416;23.232;2022-07-18T06:19:31;100845.56;;;23.77;39.20
33697;BME280;20031;43.416;23.232;2022-07-18T06:21:58;100853.34;;;23.78;38.74
33697;BME280;20031;43.416;23.232;2022-07-18T06:24:24;100851.19;;;23.87;39.53
33697;BME280;20031;43.416;23.232;2022-07-18T06:26:49;100853.06;;;23.98;39.18
33697;BME280;20031;43.416;23.232;2022-07-18T06:29:16;100844.81;;;23.88;39.01
33697;BME280;20031;43.416;23.232;2022-07-18T06:31:42;100847.66;;;24.04;38.40
33697;BME280;20031;43.416;23.232;2022-07-18T06:34:08;100853.91;;;23.98;38.20
33697;BME280;20031;43.416;23.232;2022-07-18T06:36:33;100849.59;;;23.97;38.16
33697;BME280;20031;43.416;23.232;2022-07-18T06:38:59;100850.31;;;24.04;37.88
33697;BME280;20031;43.416;23.232;2022-07-18T06:41:24;100857.94;;;24.01;38.03
33697;BME280;20031;43.416;23.232;2022-07-18T06:43:50;100854.75;;;24.10;38.32
33697;BME280;20031;43.416;23.232;2022-07-18T06:46:15;100858.28;;;24.33;38.37
33697;BME280;20031;43.416;23.232;2022-07-18T06:48:41;100843.19;;;24.45;38.03
33697;BME280;20031;43.416;23.232;2022-07-18T06:51:07;100848.22;;;24.76;37.84
33697;BME280;20031;43.416;23.232;2022-07-18T06:53:33;100850.31;;;24.97;37.72
33697;BME280;20031;43.416;23.232;2022-07-18T06:55:59;100839.09;;;25.06;36.89
33697;BME280;20031;43.416;23.232;2022-07-18T06:58:28;100840.47;;;25.31;36.79
33697;BME280;20031;43.416;23.232;2022-07-18T07:00:56;100832.78;;;25.46;35.96
33697;BME280;20031;43.416;23.232;2022-07-18T07:03:22;100840.22;;;25.44;35.69
33697;BME280;20031;43.416;23.232;2022-07-18T07:05:47;100836.50;;;25.34;36.02
33697;BME280;20031;43.416;23.232;2022-07-18T07:08:13;100822.25;;;25.40;36.22
33697;BME280;20031;43.416;23.232;2022-07-18T07:10:39;100832.03;;;25.62;35.89
33697;BME280;20031;43.416;23.232;2022-07-18T07:13:05;100826.94;;;25.61;35.61
33697;BME280;20031;43.416;23.232;2022-07-18T07:15:30;100830.09;;;25.46;35.99
33697;BME280;20031;43.416;23.232;2022-07-18T07:17:56;100832.22;;;25.44;35.38
33697;BME280;20031;43.416;23.232;2022-07-18T07:20:21;100837.53;;;25.67;35.66
33697;BME280;20031;43.416;23.232;2022-07-18T07:22:52;100842.78;;;25.90;35.05
33697;BME280;20031;43.416;23.232;2022-07-18T07:25:19;100838.44;;;26.00;34.89
33697;BME280;20031;43.416;23.232;2022-07-18T07:27:45;100835.88;;;26.21;34.48
33697;BME280;20031;43.416;23.232;2022-07-18T07:30:12;100838.69;;;26.43;33.35
33697;BME280;20031;43.416;23.232;2022-07-18T07:32:40;100829.72;;;26.65;33.90
33697;BME280;20031;43.416;23.232;2022-07-18T07:35:08;100827.06;;;26.65;34.05
33697;BME280;20031;43.416;23.232;2022-07-18T07:37:41;100824.69;;;26.85;33.91
33697;BME280;20031;43.416;23.232;2022-07-18T07:40:07;100835.59;;;26.95;34.42
33697;BME280;20031;43.416;23.232;2022-07-18T07:42:33;100824.47;;;27.03;32.57
33697;BME280;20031;43.416;23.232;2022-07-18T07:44:59;100814.56;;;26.87;32.88
33697;BME280;20031;43.416;23.232;2022-07-18T07:47:24;100809.63;;;26.79;32.55
33697;BME280;20031;43.416;23.232;2022-07-18T07:49:50;100813.19;;;26.68;32.94
33697;BME280;20031;43.416;23.232;2022-07-18T07:52:16;100818.97;;;26.93;33.42
33697;BME280;20031;43.416;23.232;2022-07-18T07:54:43;100811.50;;;27.11;32.72
33697;BME280;20031;43.416;23.232;2022-07-18T07:57:12;100814.06;;;27.23;33.66
33697;BME280;20031;43.416;23.232;2022-07-18T07:59:38;100813.69;;;27.35;32.47
33697;BME280;20031;43.416;23.232;2022-07-18T08:02:04;100810.53;;;27.60;31.97
33697;BME280;20031;43.416;23.232;2022-07-18T08:04:30;100814.63;;;27.67;31.75
33697;BME280;20031;43.416;23.232;2022-07-18T08:06:56;100806.41;;;27.31;32.68
33697;BME280;20031;43.416;23.232;2022-07-18T08:09:22;100813.47;;;27.42;32.01
33697;BME280;20031;43.416;23.232;2022-07-18T08:11:47;100810.50;;;27.38;32.66
33697;BME280;20031;43.416;23.232;2022-07-18T08:14:13;100812.53;;;27.69;32.05
33697;BME280;20031;43.416;23.232;2022-07-18T08:16:38;100807.25;;;28.00;31.88
33697;BME280;20031;43.416;23.232;2022-07-18T08:19:04;100813.28;;;28.12;31.21
33697;BME280;20031;43.416;23.232;2022-07-18T08:21:30;100811.66;;;28.37;31.33
33697;BME280;20031;43.416;23.232;2022-07-18T08:23:55;100807.97;;;28.48;31.21
33697;BME280;20031;43.416;23.232;2022-07-18T08:26:21;100816.84;;;28.49;31.41
33697;BME280;20031;43.416;23.232;2022-07-18T08:28:47;100811.88;;;28.10;30.78
33697;BME280;20031;43.416;23.232;2022-07-18T08:31:13;100810.38;;;27.92;31.02
33697;BME280;20031;43.416;23.232;2022-07-18T08:33:38;100814.78;;;28.03;31.39
33697;BME280;20031;43.416;23.232;2022-07-18T08:36:04;100809.28;;;28.15;30.73
33697;BME280;20031;43.416;23.232;2022-07-18T08:38:29;100813.53;;;28.11;31.54
33697;BME280;20031;43.416;23.232;2022-07-18T08:40:55;100811.72;;;28.16;30.57
33697;BME280;20031;43.416;23.232;2022-07-18T08:43:24;100812.31;;;28.23;31.36
33697;BME280;20031;43.416;23.232;2022-07-18T08:45:51;100807.50;;;28.25;31.12
33697;BME280;20031;43.416;23.232;2022-07-18T08:48:19;100805.50;;;28.42;30.99
33697;BME280;20031;43.416;23.232;2022-07-18T08:50:46;100797.50;;;28.78;31.83
33697;BME280;20031;43.416;23.232;2022-07-18T08:53:13;100801.81;;;29.25;30.90
33697;BME280;20031;43.416;23.232;2022-07-18T08:55:39;100801.63;;;29.37;30.31
33697;BME280;20031;43.416;23.232;2022-07-18T08:58:04;100807.81;;;29.37;29.90
33697;BME280;20031;43.416;23.232;2022-07-18T09:00:30;100793.97;;;29.14;29.76
33697;BME280;20031;43.416;23.232;2022-07-18T09:02:59;100798.25;;;29.10;30.07
33697;BME280;20031;43.416;23.232;2022-07-18T09:05:25;100802.03;;;29.19;30.13
33697;BME280;20031;43.416;23.232;2022-07-18T09:07:51;100814.81;;;29.02;30.13
33697;BME280;20031;43.416;23.232;2022-07-18T09:10:16;100799.13;;;29.25;30.16
33697;BME280;20031;43.416;23.232;2022-07-18T09:12:56;100793.41;;;29.58;31.14
33697;BME280;20031;43.416;23.232;2022-07-18T09:15:22;100790.53;;;29.84;29.89
33697;BME280;20031;43.416;23.232;2022-07-18T09:17:49;100798.00;;;29.72;30.34
33697;BME280;20031;43.416;23.232;2022-07-18T09:20:15;100790.31;;;30.00;30.53
33697;BME280;20031;43.416;23.232;2022-07-18T09:22:43;100786.25;;;29.98;29.40
33697;BME280;20031;43.416;23.232;2022-07-18T09:25:17;100797.78;;;29.84;29.69
33697;BME280;20031;43.416;23.232;2022-07-18T09:27:51;100786.50;;;29.87;30.07
33697;BME280;20031;43.416;23.232;2022-07-18T09:30:23;100797.47;;;29.80;29.88
33697;BME280;20031;43.416;23.232;2022-07-18T09:33:07;100784.00;;;29.65;29.83
33697;BME280;20031;43.416;23.232;2022-07-18T09:35:37;100786.72;;;29.75;29.66
33697;BME280;20031;43.416;23.232;2022-07-18T09:38:09;100784.47;;;29.47;30.14
33697;BME280;20031;43.416;23.232;2022-07-18T09:40:37;100787.78;;;29.13;30.78
33697;BME280;20031;43.416;23.232;2022-07-18T09:43:05;100782.13;;;29.10;30.55
33697;BME280;20031;43.416;23.232;2022-07-18T09:45:34;100780.56;;;29.14;31.07
33697;BME280;20031;43.416;23.232;2022-07-18T09:48:04;100775.94;;;29.70;30.17
33697;BME280;20031;43.416;23.232;2022-07-18T09:50:35;100770.69;;;30.15;30.49
33697;BME280;20031;43.416;23.232;2022-07-18T09:55:36;100765.31;;;30.35;29.79
33697;BME280;20031;43.416;23.232;2022-07-18T09:58:07;100771.78;;;30.68;29.77
33697;BME280;20031;43.416;23.232;2022-07-18T10:00:35;100773.91;;;31.01;29.00
33697;BME280;20031;43.416;23.232;2022-07-18T10:03:02;100767.72;;;30.76;28.93
33697;BME280;20031;43.416;23.232;2022-07-18T10:05:33;100760.47;;;30.56;28.96
33697;BME280;20031;43.416;23.232;2022-07-18T10:08:03;100760.72;;;30.90;29.21
33697;BME280;20031;43.416;23.232;2022-07-18T10:10:29;100765.31;;;30.74;29.20
33697;BME280;20031;43.416;23.232;2022-07-18T10:12:57;100761.53;;;30.70;28.85
33697;BME280;20031;43.416;23.232;2022-07-18T10:15:26;100754.03;;;30.52;29.21
33697;BME280;20031;43.416;23.232;2022-07-18T10:17:52;100753.50;;;30.41;29.51
33697;BME280;20031;43.416;23.232;2022-07-18T10:20:25;100760.50;;;30.61;29.47
33697;BME280;20031;43.416;23.232;2022-07-18T10:22:52;100759.16;;;30.54;29.14
33697;BME280;20031;43.416;23.232;2022-07-18T10:25:21;100759.69;;;30.51;29.66
33697;BME280;20031;43.416;23.232;2022-07-18T10:28:07;100763.38;;;31.09;29.40
33697;BME280;20031;43.416;23.232;2022-07-18T10:30:44;100757.72;;;31.06;29.61
33697;BME280;20031;43.416;23.232;2022-07-18T10:33:42;100765.25;;;31.04;28.48
33697;BME280;20031;43.416;23.232;2022-07-18T10:36:16;100758.06;;;30.70;28.40
33697;BME280;20031;43.416;23.232;2022-07-18T10:47:16;100743.53;;;31.53;28.10
33697;BME280;20031;43.416;23.232;2022-07-18T10:57:27;100731.13;;;31.57;28.49
33697;BME280;20031;43.416;23.232;2022-07-18T11:00:13;100720.38;;;31.91;28.46
33697;BME280;20031;43.416;23.232;2022-07-18T11:02:46;100718.13;;;32.07;27.94
33697;BME280;20031;43.416;23.232;2022-07-18T11:15:59;100714.22;;;32.75;27.11
33697;BME280;20031;43.416;23.232;2022-07-18T11:18:27;100705.69;;;32.96;26.86
33697;BME280;20031;43.416;23.232;2022-07-18T11:20:53;100707.50;;;33.01;26.99
33697;BME280;20031;43.416;23.232;2022-07-18T11:23:21;100703.19;;;32.76;26.93
33697;BME280;20031;43.416;23.232;2022-07-18T11:25:50;100693.56;;;32.65;26.54
33697;BME280;20031;43.416;23.232;2022-07-18T11:28:16;100701.41;;;32.34;27.21
33697;BME280;20031;43.416;23.232;2022-07-18T11:30:43;100701.28;;;31.87;27.72
33697;BME280;20031;43.416;23.232;2022-07-18T11:33:27;100699.84;;;31.56;27.85
33697;BME280;20031;43.416;23.232;2022-07-18T11:36:06;100694.50;;;31.95;27.79
33697;BME280;20031;43.416;23.232;2022-07-18T11:38:32;100689.03;;;32.33;27.59
33697;BME280;20031;43.416;23.232;2022-07-18T11:40:58;100688.97;;;32.38;27.08
33697;BME280;20031;43.416;23.232;2022-07-18T11:43:24;100686.91;;;32.81;26.89
33697;BME280;20031;43.416;23.232;2022-07-18T11:46:10;100679.56;;;32.87;26.64
33697;BME280;20031;43.416;23.232;2022-07-18T11:48:37;100684.81;;;32.50;27.34
33697;BME280;20031;43.416;23.232;2022-07-18T11:51:09;100673.03;;;32.41;27.25
33697;BME280;20031;43.416;23.232;2022-07-18T11:53:35;100678.31;;;32.79;27.03
33697;BME280;20031;43.416;23.232;2022-07-18T11:56:04;100663.19;;;33.20;25.88
33697;BME280;20031;43.416;23.232;2022-07-18T11:58:35;100663.16;;;33.25;24.81
33697;BME280;20031;43.416;23.232;2022-07-18T12:01:03;100657.72;;;33.06;25.45
33697;BME280;20031;43.416;23.232;2022-07-18T12:03:29;100656.13;;;33.42;26.10
33697;BME280;20031;43.416;23.232;2022-07-18T12:05:55;100647.66;;;33.67;25.79
33697;BME280;20031;43.416;23.232;2022-07-18T12:08:33;100642.44;;;33.89;26.05
33697;BME280;20031;43.416;23.232;2022-07-18T12:13:41;100660.31;;;33.35;26.45
33697;BME280;20031;43.416;23.232;2022-07-18T12:16:07;100650.13;;;33.45;27.31
33697;BME280;20031;43.416;23.232;2022-07-18T12:18:33;100650.03;;;33.87;26.29
33697;BME280;20031;43.416;23.232;2022-07-18T12:21:10;100643.63;;;34.01;25.28
33697;BME280;20031;43.416;23.232;2022-07-18T12:23:36;100641.91;;;34.05;25.71
33697;BME280;20031;43.416;23.232;2022-07-18T12:26:01;100653.25;;;34.07;25.50
33697;BME280;20031;43.416;23.232;2022-07-18T12:28:27;100650.81;;;33.19;26.49
33697;BME280;20031;43.416;23.232;2022-07-18T12:30:54;100651.06;;;32.99;27.02
33697;BME280;20031;43.416;23.232;2022-07-18T12:33:20;100639.19;;;33.37;26.34
33697;BME280;20031;43.416;23.232;2022-07-18T12:35:54;100645.66;;;33.72;25.93
33697;BME280;20031;43.416;23.232;2022-07-18T12:38:20;100632.50;;;33.84;26.19
33697;BME280;20031;43.416;23.232;2022-07-18T12:40:51;100632.22;;;34.17;25.78
33697;BME280;20031;43.416;23.232;2022-07-18T12:45:49;100630.31;;;34.31;24.87
33697;BME280;20031;43.416;23.232;2022-07-18T12:48:15;100627.63;;;34.18;25.14
33697;BME280;20031;43.416;23.232;2022-07-18T12:50:42;100625.50;;;34.28;25.06
33697;BME280;20031;43.416;23.232;2022-07-18T12:53:09;100622.31;;;34.40;24.65
33697;BME280;20031;43.416;23.232;2022-07-18T12:55:36;100612.53;;;34.70;24.38
33697;BME280;20031;43.416;23.232;2022-07-18T12:58:02;100612.38;;;35.02;25.29
33697;BME280;20031;43.416;23.232;2022-07-18T13:00:29;100615.94;;;34.63;24.31
33697;BME280;20031;43.416;23.232;2022-07-18T13:02:55;100623.41;;;34.25;24.29
33697;BME280;20031;43.416;23.232;2022-07-18T13:05:23;100607.13;;;34.12;25.29
33697;BME280;20031;43.416;23.232;2022-07-18T13:07:49;100611.38;;;34.18;24.85
33697;BME280;20031;43.416;23.232;2022-07-18T13:10:15;100598.84;;;34.22;24.80
33697;BME280;20031;43.416;23.232;2022-07-18T13:12:40;100607.38;;;34.29;25.17
33697;BME280;20031;43.416;23.232;2022-07-18T13:15:06;100604.97;;;34.67;24.09
33697;BME280;20031;43.416;23.232;2022-07-18T13:17:32;100599.06;;;34.79;24.84